sensor_id;sensor_type;location;lat;lon;timestamp;pressure;altitude;pressure_sealevel;temperature;humidity
31585;BME280;18191;51.288;12.390;2023-02-28T00:00:27;49076.47;;;-144.47;65.05
31585;BME280;18191;51.288;12.390;2023-02-28T00:05:20;49092.38;;;-144.47;64.89
31585;BME280;18191;51.288;12.390;2023-02-28T00:10:12;49092.38;;;-144.47;65.76
31585;BME280;18191;51.288;12.390;2023-02-28T00:15:07;49084.44;;;-144.47;66.59
31585;BME280;18191;51.288;12.390;2023-02-28T00:19:58;49096.38;;;-144.47;65.37
31585;BME280;18191;51.288;12.390;2023-02-28T00:24:59;49076.47;;;-144.47;65.39
31585;BME280;18191;51.288;12.390;2023-02-28T00:29:50;49126.22;;;-144.47;66.85
31585;BME280;18191;51.288;12.390;2023-02-28T00:34:40;49096.38;;;-144.47;67.10
31585;BME280;18191;51.288;12.390;2023-02-28T00:39:30;49094.38;;;-144.47;67.58
31585;BME280;18191;51.288;12.390;2023-02-28T00:44:20;49134.16;;;-144.47;67.53
31585;BME280;18191;51.288;12.390;2023-02-28T00:49:11;49112.28;;;-144.47;66.12
31585;BME280;18191;51.288;12.390;2023-02-28T00:54:01;49136.16;;;-144.47;65.14
31585;BME280;18191;51.288;12.390;2023-02-28T00:58:51;49078.47;;;-144.47;66.74
31585;BME280;18191;51.288;12.390;2023-02-28T01:03:41;49100.34;;;-144.47;66.92
31585;BME280;18191;51.288;12.390;2023-02-28T01:08:32;49072.50;;;-144.47;67.04
31585;BME280;18191;51.288;12.390;2023-02-28T01:13:22;49096.38;;;-144.47;67.81
31585;BME280;18191;51.288;12.390;2023-02-28T01:18:13;49128.19;;;-144.47;65.70
31585;BME280;18191;51.288;12.390;2023-02-28T01:23:03;49140.13;;;-144.47;66.69
31585;BME280;18191;51.288;12.390;2023-02-28T01:27:53;49116.25;;;-144.47;67.48
31585;BME280;18191;51.288;12.390;2023-02-28T01:32:43;49100.34;;;-144.47;67.28
31585;BME280;18191;51.288;12.390;2023-02-28T01:37:34;49112.28;;;-144.47;66.88
31585;BME280;18191;51.288;12.390;2023-02-28T01:42:24;49106.31;;;-144.47;67.62
31585;BME280;18191;51.288;12.390;2023-02-28T01:47:14;49100.34;;;-144.47;68.41
31585;BME280;18191;51.288;12.390;2023-02-28T01:52:04;49144.09;;;-144.47;68.29
31585;BME280;18191;51.288;12.390;2023-02-28T01:56:56;49100.34;;;-144.47;68.42
31585;BME280;18191;51.288;12.390;2023-02-28T02:01:48;49116.25;;;-144.47;68.60
31585;BME280;18191;51.288;12.390;2023-02-28T02:06:43;49142.13;;;-144.47;68.39
31585;BME280;18191;51.288;12.390;2023-02-28T02:11:34;49118.25;;;-144.47;69.18
31585;BME280;18191;51.288;12.390;2023-02-28T02:16:38;49108.31;;;-144.47;68.55
31585;BME280;18191;51.288;12.390;2023-02-28T02:21:37;49078.47;;;-144.47;69.59
31585;BME280;18191;51.288;12.390;2023-02-28T02:26:52;49134.16;;;-144.47;69.62
31585;BME280;18191;51.288;12.390;2023-02-28T02:36:58;49144.09;;;-144.47;68.68
31585;BME280;18191;51.288;12.390;2023-02-28T02:41:53;49102.34;;;-144.47;69.44
31585;BME280;18191;51.288;12.390;2023-02-28T02:46:44;49138.16;;;-144.47;69.99
31585;BME280;18191;51.288;12.390;2023-02-28T02:51:35;49100.34;;;-144.47;69.00
31585;BME280;18191;51.288;12.390;2023-02-28T02:56:28;49082.44;;;-144.47;68.90
31585;BME280;18191;51.288;12.390;2023-02-28T03:01:20;49082.44;;;-144.47;70.00
31585;BME280;18191;51.288;12.390;2023-02-28T03:06:17;49138.16;;;-144.47;70.15
31585;BME280;18191;51.288;12.390;2023-02-28T03:11:11;49104.31;;;-144.47;69.38
31585;BME280;18191;51.288;12.390;2023-02-28T03:16:11;49116.25;;;-144.47;69.14
31585;BME280;18191;51.288;12.390;2023-02-28T03:21:12;49088.41;;;-144.47;69.66
31585;BME280;18191;51.288;12.390;2023-02-28T03:26:10;49112.28;;;-144.47;70.03
31585;BME280;18191;51.288;12.390;2023-02-28T03:31:15;49084.44;;;-144.47;68.33
31585;BME280;18191;51.288;12.390;2023-02-28T03:41:00;49124.22;;;-144.47;69.79
31585;BME280;18191;51.288;12.390;2023-02-28T03:45:52;49086.41;;;-144.47;69.53
31585;BME280;18191;51.288;12.390;2023-02-28T03:50:45;49096.38;;;-144.47;69.68
31585;BME280;18191;51.288;12.390;2023-02-28T03:55:39;49096.38;;;-144.47;69.39
31585;BME280;18191;51.288;12.390;2023-02-28T04:00:31;49096.38;;;-144.47;68.20
31585;BME280;18191;51.288;12.390;2023-02-28T04:05:24;49144.09;;;-144.47;68.92
31585;BME280;18191;51.288;12.390;2023-02-28T04:10:15;49088.41;;;-144.47;68.27
31585;BME280;18191;51.288;12.390;2023-02-28T04:15:06;49120.25;;;-144.47;68.58
31585;BME280;18191;51.288;12.390;2023-02-28T04:19:57;49096.38;;;-144.47;68.72
31585;BME280;18191;51.288;12.390;2023-02-28T04:24:47;49150.06;;;-144.47;68.24
31585;BME280;18191;51.288;12.390;2023-02-28T04:29:37;49118.25;;;-144.47;69.04
31585;BME280;18191;51.288;12.390;2023-02-28T04:34:28;49082.44;;;-144.47;69.21
31585;BME280;18191;51.288;12.390;2023-02-28T04:39:19;49096.38;;;-144.47;68.23
31585;BME280;18191;51.288;12.390;2023-02-28T04:44:09;49132.16;;;-144.47;67.64
31585;BME280;18191;51.288;12.390;2023-02-28T04:48:59;49112.28;;;-144.47;68.43
31585;BME280;18191;51.288;12.390;2023-02-28T04:53:52;49148.09;;;-144.47;67.61
31585;BME280;18191;51.288;12.390;2023-02-28T04:58:43;49108.31;;;-144.47;66.92
31585;BME280;18191;51.288;12.390;2023-02-28T05:03:33;49102.34;;;-144.47;68.05
31585;BME280;18191;51.288;12.390;2023-02-28T05:08:23;49116.25;;;-144.47;67.69
31585;BME280;18191;51.288;12.390;2023-02-28T05:13:13;49112.28;;;-144.47;67.90
31585;BME280;18191;51.288;12.390;2023-02-28T05:18:04;49088.41;;;-144.47;68.35
31585;BME280;18191;51.288;12.390;2023-02-28T05:22:54;49112.28;;;-144.47;66.69
31585;BME280;18191;51.288;12.390;2023-02-28T05:27:44;49108.31;;;-144.47;65.94
31585;BME280;18191;51.288;12.390;2023-02-28T05:32:35;49084.44;;;-144.47;65.70
31585;BME280;18191;51.288;12.390;2023-02-28T05:37:25;49114.28;;;-144.47;66.29
31585;BME280;18191;51.288;12.390;2023-02-28T05:42:15;49104.31;;;-144.47;66.11
31585;BME280;18191;51.288;12.390;2023-02-28T05:47:05;49080.44;;;-144.47;66.39
31585;BME280;18191;51.288;12.390;2023-02-28T05:51:55;49144.09;;;-144.47;64.61
31585;BME280;18191;51.288;12.390;2023-02-28T05:56:46;49064.53;;;-144.47;65.25
31585;BME280;18191;51.288;12.390;2023-02-28T06:06:26;49088.41;;;-144.47;66.14
31585;BME280;18191;51.288;12.390;2023-02-28T06:11:16;49088.41;;;-144.47;65.85
31585;BME280;18191;51.288;12.390;2023-02-28T06:16:08;49080.44;;;-144.47;65.56
31585;BME280;18191;51.288;12.390;2023-02-28T06:20:59;49132.16;;;-144.47;66.68
31585;BME280;18191;51.288;12.390;2023-02-28T06:25:49;49088.41;;;-144.47;67.37
31585;BME280;18191;51.288;12.390;2023-02-28T06:30:39;49100.34;;;-144.47;67.62
31585;BME280;18191;51.288;12.390;2023-02-28T06:35:29;49136.16;;;-144.47;66.89
31585;BME280;18191;51.288;12.390;2023-02-28T06:40:19;49100.34;;;-144.47;67.56
31585;BME280;18191;51.288;12.390;2023-02-28T06:45:10;49128.19;;;-144.47;65.29
31585;BME280;18191;51.288;12.390;2023-02-28T06:50:04;49124.22;;;-144.47;66.63
31585;BME280;18191;51.288;12.390;2023-02-28T06:54:54;49100.34;;;-144.47;65.95
31585;BME280;18191;51.288;12.390;2023-02-28T06:59:49;49086.41;;;-144.47;65.04
31585;BME280;18191;51.288;12.390;2023-02-28T07:04:39;49078.47;;;-144.47;64.80
31585;BME280;18191;51.288;12.390;2023-02-28T07:09:30;49098.34;;;-144.47;64.31
31585;BME280;18191;51.288;12.390;2023-02-28T07:14:20;49100.34;;;-144.47;65.09
31585;BME280;18191;51.288;12.390;2023-02-28T07:19:11;49132.16;;;-144.47;64.84
31585;BME280;18191;51.288;12.390;2023-02-28T07:24:02;49102.34;;;-144.47;64.18
31585;BME280;18191;51.288;12.390;2023-02-28T07:28:52;49064.53;;;-144.47;64.30
31585;BME280;18191;51.288;12.390;2023-02-28T07:33:43;49112.28;;;-144.47;64.05
31585;BME280;18191;51.288;12.390;2023-02-28T07:38:34;49120.25;;;-144.47;63.77
31585;BME280;18191;51.288;12.390;2023-02-28T07:43:24;49094.38;;;-144.47;62.47
31585;BME280;18191;51.288;12.390;2023-02-28T07:48:14;49100.34;;;-144.47;62.96
31585;BME280;18191;51.288;12.390;2023-02-28T07:53:04;49086.41;;;-144.47;62.01
31585;BME280;18191;51.288;12.390;2023-02-28T07:57:56;49116.25;;;-144.47;60.62
31585;BME280;18191;51.288;12.390;2023-02-28T08:02:46;49064.53;;;-144.47;60.66
31585;BME280;18191;51.288;12.390;2023-02-28T08:07:36;49140.13;;;-144.47;60.38
31585;BME280;18191;51.288;12.390;2023-02-28T08:12:26;49094.38;;;-144.47;58.07
31585;BME280;18191;51.288;12.390;2023-02-28T08:17:17;49096.38;;;-144.47;58.03
31585;BME280;18191;51.288;12.390;2023-02-28T08:22:07;49060.56;;;-144.47;57.30
31585;BME280;18191;51.288;12.390;2023-02-28T08:26:57;49096.38;;;-144.47;55.42
31585;BME280;18191;51.288;12.390;2023-02-28T08:31:48;49088.41;;;-144.47;53.03
31585;BME280;18191;51.288;12.390;2023-02-28T08:36:38;49086.41;;;-144.47;53.73
31585;BME280;18191;51.288;12.390;2023-02-28T08:41:29;49040.66;;;-144.47;51.94
31585;BME280;18191;51.288;12.390;2023-02-28T08:46:19;49098.34;;;-144.47;50.08
31585;BME280;18191;51.288;12.390;2023-02-28T08:51:10;49084.44;;;-144.47;49.16
31585;BME280;18191;51.288;12.390;2023-02-28T08:56:02;49088.41;;;-144.47;47.78
31585;BME280;18191;51.288;12.390;2023-02-28T09:00:53;49084.44;;;-144.47;46.25
31585;BME280;18191;51.288;12.390;2023-02-28T09:05:56;49116.25;;;-144.47;47.04
31585;BME280;18191;51.288;12.390;2023-02-28T09:10:47;49072.50;;;-144.47;46.31
31585;BME280;18191;51.288;12.390;2023-02-28T09:15:37;49052.59;;;-144.47;46.44
31585;BME280;18191;51.288;12.390;2023-02-28T09:20:27;49092.38;;;-144.47;45.73
31585;BME280;18191;51.288;12.390;2023-02-28T09:25:17;49052.59;;;-144.47;45.30
31585;BME280;18191;51.288;12.390;2023-02-28T09:30:08;49036.69;;;-144.47;46.09
31585;BME280;18191;51.288;12.390;2023-02-28T09:34:58;49052.59;;;-144.47;44.94
31585;BME280;18191;51.288;12.390;2023-02-28T09:39:48;49058.56;;;-144.47;42.61
31585;BME280;18191;51.288;12.390;2023-02-28T09:44:40;49068.50;;;-144.47;43.23
31585;BME280;18191;51.288;12.390;2023-02-28T09:49:34;49092.38;;;-144.47;42.45
31585;BME280;18191;51.288;12.390;2023-02-28T09:54:31;49036.69;;;-144.47;40.98
31585;BME280;18191;51.288;12.390;2023-02-28T09:59:29;49068.50;;;-144.47;39.93
31585;BME280;18191;51.288;12.390;2023-02-28T10:04:41;49048.63;;;-144.47;39.48
31585;BME280;18191;51.288;12.390;2023-02-28T10:09:33;49040.66;;;-144.47;39.88
31585;BME280;18191;51.288;12.390;2023-02-28T10:14:26;49060.56;;;-144.47;40.54
31585;BME280;18191;51.288;12.390;2023-02-28T10:19:20;49062.56;;;-144.47;39.25
31585;BME280;18191;51.288;12.390;2023-02-28T10:24:19;49068.50;;;-144.47;38.24
31585;BME280;18191;51.288;12.390;2023-02-28T10:29:10;49046.63;;;-144.47;38.63
31585;BME280;18191;51.288;12.390;2023-02-28T10:34:00;49056.59;;;-144.47;39.26
31585;BME280;18191;51.288;12.390;2023-02-28T10:38:51;49086.41;;;-144.47;38.72
31585;BME280;18191;51.288;12.390;2023-02-28T10:43:42;49036.69;;;-144.47;39.22
31585;BME280;18191;51.288;12.390;2023-02-28T10:48:34;49060.56;;;-144.47;38.59
31585;BME280;18191;51.288;12.390;2023-02-28T10:58:21;49040.66;;;-144.47;38.59
31585;BME280;18191;51.288;12.390;2023-02-28T11:03:28;49052.59;;;-144.47;38.48
31585;BME280;18191;51.288;12.390;2023-02-28T11:08:18;49082.44;;;-144.47;39.34
31585;BME280;18191;51.288;12.390;2023-02-28T11:13:12;48990.94;;;-144.47;39.67
31585;BME280;18191;51.288;12.390;2023-02-28T11:23:02;49064.53;;;-144.47;38.97
31585;BME280;18191;51.288;12.390;2023-02-28T11:27:54;49048.63;;;-144.47;38.33
31585;BME280;18191;51.288;12.390;2023-02-28T11:32:48;49060.56;;;-144.47;38.50
31585;BME280;18191;51.288;12.390;2023-02-28T11:37:38;49050.63;;;-144.47;38.39
31585;BME280;18191;51.288;12.390;2023-02-28T11:42:42;49040.66;;;-144.47;38.99
31585;BME280;18191;51.288;12.390;2023-02-28T11:47:54;49012.81;;;-144.47;38.90
31585;BME280;18191;51.288;12.390;2023-02-28T11:52:54;49040.66;;;-144.47;39.55
31585;BME280;18191;51.288;12.390;2023-02-28T11:57:52;49044.66;;;-144.47;38.07
31585;BME280;18191;51.288;12.390;2023-02-28T12:02:51;49072.50;;;-144.47;39.38
31585;BME280;18191;51.288;12.390;2023-02-28T12:13:07;49056.59;;;-144.47;39.45
31585;BME280;18191;51.288;12.390;2023-02-28T12:23:09;49040.66;;;-144.47;40.06
31585;BME280;18191;51.288;12.390;2023-02-28T12:28:00;49064.53;;;-144.47;40.63
31585;BME280;18191;51.288;12.390;2023-02-28T12:33:07;49040.66;;;-144.47;39.04
31585;BME280;18191;51.288;12.390;2023-02-28T12:47:48;49046.63;;;-144.47;38.44
31585;BME280;18191;51.288;12.390;2023-02-28T13:07:49;49044.66;;;-144.47;39.46
31585;BME280;18191;51.288;12.390;2023-02-28T13:12:47;49060.56;;;-144.47;39.53
31585;BME280;18191;51.288;12.390;2023-02-28T13:17:38;49060.56;;;-144.47;38.66
31585;BME280;18191;51.288;12.390;2023-02-28T13:27:35;49032.72;;;-144.47;38.85
31585;BME280;18191;51.288;12.390;2023-02-28T13:32:30;49060.56;;;-144.47;40.29
31585;BME280;18191;51.288;12.390;2023-02-28T13:42:23;49050.63;;;-144.47;40.12
31585;BME280;18191;51.288;12.390;2023-02-28T13:47:22;49044.66;;;-144.47;40.28
31585;BME280;18191;51.288;12.390;2023-02-28T13:52:15;49040.66;;;-144.47;39.50
31585;BME280;18191;51.288;12.390;2023-02-28T14:07:30;49056.59;;;-144.47;40.01
31585;BME280;18191;51.288;12.390;2023-02-28T14:17:31;49072.50;;;-144.47;39.16
31585;BME280;18191;51.288;12.390;2023-02-28T14:22:39;49024.75;;;-144.47;39.00
31585;BME280;18191;51.288;12.390;2023-02-28T14:32:59;49024.75;;;-144.47;39.62
31585;BME280;18191;51.288;12.390;2023-02-28T14:37:51;49072.50;;;-144.47;39.33
31585;BME280;18191;51.288;12.390;2023-02-28T14:42:47;49054.59;;;-144.47;40.20
31585;BME280;18191;51.288;12.390;2023-02-28T14:47:37;49028.72;;;-144.47;40.80
31585;BME280;18191;51.288;12.390;2023-02-28T14:52:28;49048.63;;;-144.47;40.51
31585;BME280;18191;51.288;12.390;2023-02-28T14:57:27;49046.63;;;-144.47;39.81
31585;BME280;18191;51.288;12.390;2023-02-28T15:02:22;49032.72;;;-144.47;39.38
31585;BME280;18191;51.288;12.390;2023-02-28T15:07:13;49048.63;;;-144.47;39.94
31585;BME280;18191;51.288;12.390;2023-02-28T15:12:04;49064.53;;;-144.47;40.38
31585;BME280;18191;51.288;12.390;2023-02-28T15:16:56;48996.91;;;-144.47;39.26
31585;BME280;18191;51.288;12.390;2023-02-28T15:21:48;49072.50;;;-144.47;39.42
31585;BME280;18191;51.288;12.390;2023-02-28T15:26:40;49048.63;;;-144.47;40.72
31585;BME280;18191;51.288;12.390;2023-02-28T15:31:31;49052.59;;;-144.47;39.76
31585;BME280;18191;51.288;12.390;2023-02-28T15:36:24;49040.66;;;-144.47;41.06
31585;BME280;18191;51.288;12.390;2023-02-28T15:41:25;49052.59;;;-144.47;41.62
31585;BME280;18191;51.288;12.390;2023-02-28T15:46:15;49038.69;;;-144.47;41.75
31585;BME280;18191;51.288;12.390;2023-02-28T15:51:07;49056.59;;;-144.47;42.48
31585;BME280;18191;51.288;12.390;2023-02-28T15:55:59;49066.53;;;-144.47;42.57
31585;BME280;18191;51.288;12.390;2023-02-28T16:01:07;49076.47;;;-144.47;43.19
31585;BME280;18191;51.288;12.390;2023-02-28T16:11:08;49056.59;;;-144.47;43.63
31585;BME280;18191;51.288;12.390;2023-02-28T16:15:58;49060.56;;;-144.47;44.10
31585;BME280;18191;51.288;12.390;2023-02-28T16:20:50;49022.75;;;-144.47;45.76
31585;BME280;18191;51.288;12.390;2023-02-28T16:25:41;49068.50;;;-144.47;45.58
31585;BME280;18191;51.288;12.390;2023-02-28T16:30:32;49060.56;;;-144.47;47.38
31585;BME280;18191;51.288;12.390;2023-02-28T16:35:22;49072.50;;;-144.47;47.97
31585;BME280;18191;51.288;12.390;2023-02-28T16:40:13;49064.53;;;-144.47;49.38
31585;BME280;18191;51.288;12.390;2023-02-28T16:45:04;49070.50;;;-144.47;49.53
31585;BME280;18191;51.288;12.390;2023-02-28T16:49:54;49072.50;;;-144.47;51.09
31585;BME280;18191;51.288;12.390;2023-02-28T16:54:45;49028.72;;;-144.47;50.78
31585;BME280;18191;51.288;12.390;2023-02-28T16:59:35;49042.66;;;-144.47;52.04
31585;BME280;18191;51.288;12.390;2023-02-28T17:04:25;49012.81;;;-144.47;52.56
31585;BME280;18191;51.288;12.390;2023-02-28T17:09:20;49048.63;;;-144.47;52.40
31585;BME280;18191;51.288;12.390;2023-02-28T17:14:10;49060.56;;;-144.47;55.69
31585;BME280;18191;51.288;12.390;2023-02-28T17:19:02;49100.34;;;-144.47;58.33
31585;BME280;18191;51.288;12.390;2023-02-28T17:23:52;49040.66;;;-144.47;61.12
31585;BME280;18191;51.288;12.390;2023-02-28T17:28:43;49064.53;;;-144.47;60.73
31585;BME280;18191;51.288;12.390;2023-02-28T17:33:33;49054.59;;;-144.47;63.07
31585;BME280;18191;51.288;12.390;2023-02-28T17:38:23;49106.31;;;-144.47;63.84
31585;BME280;18191;51.288;12.390;2023-02-28T17:43:13;49096.38;;;-144.47;63.48
31585;BME280;18191;51.288;12.390;2023-02-28T17:48:04;49054.59;;;-144.47;64.89
31585;BME280;18191;51.288;12.390;2023-02-28T17:52:54;49072.50;;;-144.47;65.02
31585;BME280;18191;51.288;12.390;2023-02-28T17:57:46;49060.56;;;-144.47;65.95
31585;BME280;18191;51.288;12.390;2023-02-28T18:02:36;49096.38;;;-144.47;65.47
31585;BME280;18191;51.288;12.390;2023-02-28T18:07:27;49068.50;;;-144.47;64.66
31585;BME280;18191;51.288;12.390;2023-02-28T18:12:17;49042.66;;;-144.47;65.28
31585;BME280;18191;51.288;12.390;2023-02-28T18:17:08;49044.66;;;-144.47;66.17
31585;BME280;18191;51.288;12.390;2023-02-28T18:21:59;49048.63;;;-144.47;66.54
31585;BME280;18191;51.288;12.390;2023-02-28T18:26:49;49084.44;;;-144.47;67.49
31585;BME280;18191;51.288;12.390;2023-02-28T18:31:40;49102.34;;;-144.47;67.02
31585;BME280;18191;51.288;12.390;2023-02-28T18:36:30;49092.38;;;-144.47;66.52
31585;BME280;18191;51.288;12.390;2023-02-28T18:41:20;49096.38;;;-144.47;66.20
31585;BME280;18191;51.288;12.390;2023-02-28T18:46:11;49056.59;;;-144.47;67.57
31585;BME280;18191;51.288;12.390;2023-02-28T18:51:22;49092.38;;;-144.47;68.16
31585;BME280;18191;51.288;12.390;2023-02-28T18:56:13;49100.34;;;-144.47;69.29
31585;BME280;18191;51.288;12.390;2023-02-28T19:01:07;49072.50;;;-144.47;69.73
31585;BME280;18191;51.288;12.390;2023-02-28T19:06:02;49100.34;;;-144.47;70.01
31585;BME280;18191;51.288;12.390;2023-02-28T19:10:52;49084.44;;;-144.47;70.66
31585;BME280;18191;51.288;12.390;2023-02-28T19:15:42;49060.56;;;-144.47;70.35
31585;BME280;18191;51.288;12.390;2023-02-28T19:20:33;49096.38;;;-144.47;70.61
31585;BME280;18191;51.288;12.390;2023-02-28T19:25:23;49084.44;;;-144.47;70.63
31585;BME280;18191;51.288;12.390;2023-02-28T19:30:13;49040.66;;;-144.47;70.69
31585;BME280;18191;51.288;12.390;2023-02-28T19:35:03;49106.31;;;-144.47;71.48
31585;BME280;18191;51.288;12.390;2023-02-28T19:39:54;49068.50;;;-144.47;70.88
31585;BME280;18191;51.288;12.390;2023-02-28T19:44:45;49050.63;;;-144.47;72.72
31585;BME280;18191;51.288;12.390;2023-02-28T19:49:36;49100.34;;;-144.47;73.56
31585;BME280;18191;51.288;12.390;2023-02-28T19:54:26;49092.38;;;-144.47;73.82
31585;BME280;18191;51.288;12.390;2023-02-28T19:59:16;49058.56;;;-144.47;74.54
31585;BME280;18191;51.288;12.390;2023-02-28T20:04:06;49092.38;;;-144.47;74.77
31585;BME280;18191;51.288;12.390;2023-02-28T20:08:58;49080.44;;;-144.47;74.13
31585;BME280;18191;51.288;12.390;2023-02-28T20:13:51;49092.38;;;-144.47;75.82
31585;BME280;18191;51.288;12.390;2023-02-28T20:18:41;49096.38;;;-144.47;75.62
31585;BME280;18191;51.288;12.390;2023-02-28T20:23:33;49104.31;;;-144.47;76.19
31585;BME280;18191;51.288;12.390;2023-02-28T20:28:23;49072.50;;;-144.47;75.86
31585;BME280;18191;51.288;12.390;2023-02-28T20:33:14;49092.38;;;-144.47;75.97
31585;BME280;18191;51.288;12.390;2023-02-28T20:38:05;49060.56;;;-144.47;76.23
31585;BME280;18191;51.288;12.390;2023-02-28T20:42:55;49112.28;;;-144.47;76.59
31585;BME280;18191;51.288;12.390;2023-02-28T20:47:45;49084.44;;;-144.47;76.17
31585;BME280;18191;51.288;12.390;2023-02-28T20:52:35;49084.44;;;-144.47;76.96
31585;BME280;18191;51.288;12.390;2023-02-28T20:57:27;49064.53;;;-144.47;77.11
31585;BME280;18191;51.288;12.390;2023-02-28T21:02:17;49076.47;;;-144.47;77.36
31585;BME280;18191;51.288;12.390;2023-02-28T21:07:07;49052.59;;;-144.47;77.61
31585;BME280;18191;51.288;12.390;2023-02-28T21:11:58;49086.41;;;-144.47;77.79
31585;BME280;18191;51.288;12.390;2023-02-28T21:16:48;49092.38;;;-144.47;77.85
31585;BME280;18191;51.288;12.390;2023-02-28T21:21:39;49092.38;;;-144.47;77.70
31585;BME280;18191;51.288;12.390;2023-02-28T21:26:32;49086.41;;;-144.47;78.02
31585;BME280;18191;51.288;12.390;2023-02-28T21:31:24;49068.50;;;-144.47;78.06
31585;BME280;18191;51.288;12.390;2023-02-28T21:36:15;49092.38;;;-144.47;78.28
31585;BME280;18191;51.288;12.390;2023-02-28T21:41:10;49092.38;;;-144.47;79.60
31585;BME280;18191;51.288;12.390;2023-02-28T21:46:01;49088.41;;;-144.47;79.30
31585;BME280;18191;51.288;12.390;2023-02-28T21:50:58;49096.38;;;-144.47;79.40
31585;BME280;18191;51.288;12.390;2023-02-28T21:55:51;49026.75;;;-144.47;79.38
31585;BME280;18191;51.288;12.390;2023-02-28T22:00:41;49144.09;;;-144.47;79.37
31585;BME280;18191;51.288;12.390;2023-02-28T22:05:31;49082.44;;;-144.47;79.18
31585;BME280;18191;51.288;12.390;2023-02-28T22:10:21;49096.38;;;-144.47;79.62
31585;BME280;18191;51.288;12.390;2023-02-28T22:15:12;49096.38;;;-144.47;79.45
31585;BME280;18191;51.288;12.390;2023-02-28T22:20:02;49082.44;;;-144.47;80.01
31585;BME280;18191;51.288;12.390;2023-02-28T22:24:52;49064.53;;;-144.47;79.87
31585;BME280;18191;51.288;12.390;2023-02-28T22:29:42;49096.38;;;-144.47;80.09
31585;BME280;18191;51.288;12.390;2023-02-28T22:34:33;49098.34;;;-144.47;80.16
31585;BME280;18191;51.288;12.390;2023-02-28T22:39:23;49064.53;;;-144.47;80.16
31585;BME280;18191;51.288;12.390;2023-02-28T22:44:13;49056.59;;;-144.47;80.16
31585;BME280;18191;51.288;12.390;2023-02-28T22:49:05;49080.44;;;-144.47;80.68
31585;BME280;18191;51.288;12.390;2023-02-28T22:53:55;49092.38;;;-144.47;79.68
31585;BME280;18191;51.288;12.390;2023-02-28T22:58:47;49080.44;;;-144.47;81.39
31585;BME280;18191;51.288;12.390;2023-02-28T23:03:38;49074.47;;;-144.47;81.41
31585;BME280;18191;51.288;12.390;2023-02-28T23:08:28;49078.47;;;-144.47;81.11
31585;BME280;18191;51.288;12.390;2023-02-28T23:13:19;49064.53;;;-144.47;81.39
31585;BME280;18191;51.288;12.390;2023-02-28T23:18:09;49032.72;;;-144.47;81.13
31585;BME280;18191;51.288;12.390;2023-02-28T23:22:59;49060.56;;;-144.47;81.02
31585;BME280;18191;51.288;12.390;2023-02-28T23:27:49;49080.44;;;-144.47;82.07
31585;BME280;18191;51.288;12.390;2023-02-28T23:32:40;49080.44;;;-144.47;82.12
31585;BME280;18191;51.288;12.390;2023-02-28T23:37:30;49082.44;;;-144.47;81.97
31585;BME280;18191;51.288;12.390;2023-02-28T23:42:21;49136.16;;;-144.47;82.12
31585;BME280;18191;51.288;12.390;2023-02-28T23:47:11;49074.47;;;-144.47;81.91
31585;BME280;18191;51.288;12.390;2023-02-28T23:52:02;49084.44;;;-144.47;81.77
31585;BME280;18191;51.288;12.390;2023-02-28T23:56:53;49072.50;;;-144.47;81.89
